createdAt,value
2022-08-21T00:00:25.425Z,3.28
2022-08-21T00:01:29.240Z,4.13
2022-08-21T00:02:31.922Z,3.72
2022-08-21T00:03:33.679Z,3.80
2022-08-21T00:04:36.294Z,5.03
2022-08-21T00:05:39.783Z,4.53
2022-08-21T00:06:42.477Z,4.38
2022-08-21T00:07:45.562Z,3.70
2022-08-21T00:08:48.155Z,4.03
2022-08-21T00:09:49.948Z,3.72
2022-08-21T00:10:52.931Z,3.40
2022-08-21T00:11:54.573Z,3.50
2022-08-21T00:12:57.339Z,3.10
2022-08-21T00:13:59.018Z,3.60
2022-08-21T00:15:01.657Z,3.83
2022-08-21T00:16:04.066Z,3.70
2022-08-21T00:17:07.422Z,3.55
2022-08-21T00:18:11.873Z,3.42
2022-08-21T00:19:15.098Z,3.50
2022-08-21T00:20:17.851Z,3.78
2022-08-21T00:21:20.454Z,4.15
2022-08-21T00:22:22.053Z,3.67
2022-08-21T00:23:26.352Z,3.90
2022-08-21T00:24:28.447Z,4.25
2022-08-21T00:25:31.135Z,3.60
2022-08-21T00:26:33.091Z,3.78
2022-08-21T00:27:36.116Z,3.63
2022-08-21T00:28:38.789Z,3.90
2022-08-21T00:29:40.457Z,3.33
2022-08-21T00:30:43.101Z,3.55
2022-08-21T00:31:45.028Z,3.92
2022-08-21T00:32:47.634Z,3.30
2022-08-21T00:33:49.250Z,3.92
2022-08-21T00:34:52.206Z,3.53
2022-08-21T00:35:53.891Z,3.70
2022-08-21T00:36:56.466Z,3.42
2022-08-21T00:37:58.506Z,3.65
2022-08-21T00:39:03.299Z,3.45
2022-08-21T00:40:07.054Z,3.65
2022-08-21T00:41:36.807Z,4.25
2022-08-21T00:42:34.135Z,3.92
2022-08-21T00:43:37.763Z,3.90
2022-08-21T00:44:40.323Z,3.80
2022-08-21T00:45:42.125Z,3.72
2022-08-21T00:46:45.394Z,3.47
2022-08-21T00:47:47.076Z,3.70
2022-08-21T00:48:49.830Z,3.15
2022-08-21T00:49:51.502Z,3.92
2022-08-21T00:50:57.779Z,3.25
2022-08-21T00:52:01.418Z,3.67
2022-08-21T00:53:05.363Z,3.70
2022-08-21T00:54:08.936Z,3.45
2022-08-21T00:55:23.391Z,3.50
2022-08-21T00:56:26.089Z,3.22
2022-08-21T00:57:34.529Z,3.83
2022-08-21T00:58:37.354Z,3.88
2022-08-21T00:59:42.423Z,3.63
2022-08-21T01:00:47.270Z,3.78
2022-08-21T01:01:50.825Z,3.80
2022-08-21T01:02:52.500Z,3.92
2022-08-21T01:03:55.296Z,3.65
2022-08-21T01:04:56.926Z,3.80
2022-08-21T01:05:59.520Z,3.53
2022-08-21T01:07:01.399Z,3.50
2022-08-21T01:08:04.971Z,3.67
2022-08-21T01:09:07.924Z,3.85
2022-08-21T01:10:18.824Z,4.00
2022-08-21T01:11:27.304Z,3.80
2022-08-21T01:12:29.486Z,3.58
2022-08-21T01:13:34.355Z,4.40
2022-08-21T01:14:36.302Z,3.75
2022-08-21T01:15:41.351Z,3.15
2022-08-21T01:16:46.860Z,3.97
2022-08-21T01:17:49.959Z,3.58
2022-08-21T01:18:52.083Z,3.65
2022-08-21T01:19:55.170Z,3.88
2022-08-21T01:21:09.470Z,3.55
2022-08-21T01:22:15.400Z,3.35
2022-08-21T01:23:17.023Z,3.95
2022-08-21T01:24:19.680Z,3.53
2022-08-21T01:25:21.462Z,3.20
2022-08-21T01:26:33.878Z,3.30
2022-08-21T01:27:36.261Z,3.08
2022-08-21T01:28:43.702Z,3.78
2022-08-21T01:29:49.108Z,3.70
2022-08-21T01:30:53.553Z,4.32
2022-08-21T01:31:55.613Z,3.30
2022-08-21T01:32:58.910Z,3.58
2022-08-21T01:34:00.708Z,3.85
2022-08-21T01:35:03.830Z,4.15
2022-08-21T01:36:07.402Z,3.72
2022-08-21T01:37:10.308Z,3.85
2022-08-21T01:38:14.307Z,3.90
2022-08-21T01:39:17.457Z,3.20
2022-08-21T01:40:19.400Z,3.85
2022-08-21T01:41:22.074Z,3.45
2022-08-21T01:42:23.798Z,3.55
2022-08-21T01:43:32.712Z,3.38
2022-08-21T01:44:41.833Z,3.97
2022-08-21T01:45:44.661Z,3.72
2022-08-21T01:46:46.354Z,3.90
2022-08-21T01:47:49.072Z,3.40
2022-08-21T01:48:50.684Z,4.18
2022-08-21T01:49:53.801Z,3.95
2022-08-21T01:50:56.991Z,3.45
2022-08-21T01:52:01.171Z,3.30
2022-08-21T01:53:03.005Z,3.63
2022-08-21T01:54:05.822Z,4.13
2022-08-21T01:55:09.227Z,3.20
2022-08-21T01:56:14.571Z,3.60
2022-08-21T01:57:16.343Z,3.67
2022-08-21T01:58:18.993Z,3.78
2022-08-21T01:59:21.655Z,4.18
2022-08-21T02:00:24.793Z,4.10
2022-08-21T02:01:26.554Z,3.50
2022-08-21T02:02:29.418Z,4.03
2022-08-21T02:03:35.524Z,4.25
2022-08-21T02:04:38.810Z,3.80
2022-08-21T02:05:40.417Z,4.10
2022-08-21T02:06:43.053Z,4.10
2022-08-21T02:07:52.005Z,4.90
2022-08-21T02:08:54.845Z,4.00
2022-08-21T02:09:56.474Z,4.15
2022-08-21T02:11:00.889Z,4.60
2022-08-21T02:12:02.722Z,4.15
2022-08-21T02:13:05.891Z,3.83
2022-08-21T02:14:07.638Z,4.25
2022-08-21T02:15:11.986Z,4.32
2022-08-21T02:16:17.259Z,4.13
2022-08-21T02:17:22.393Z,3.95
2022-08-21T02:18:24.227Z,4.07
2022-08-21T02:19:26.853Z,3.80
2022-08-21T02:20:42.617Z,4.60
2022-08-21T02:21:45.858Z,4.22
2022-08-21T02:22:48.848Z,4.38
2022-08-21T02:23:51.483Z,4.10
2022-08-21T02:24:54.816Z,4.40
2022-08-21T02:25:59.150Z,4.68
2022-08-21T02:27:00.786Z,4.15
2022-08-21T02:28:06.202Z,4.43
2022-08-21T02:29:07.906Z,4.60
2022-08-21T02:30:13.305Z,4.00
2022-08-21T02:31:15.250Z,4.88
2022-08-21T02:32:17.966Z,4.35
2022-08-21T02:33:19.973Z,4.10
2022-08-21T02:34:22.621Z,4.70
2022-08-21T02:35:31.002Z,4.60
2022-08-21T02:36:33.966Z,4.60
2022-08-21T02:37:35.827Z,4.30
2022-08-21T02:38:42.019Z,4.40
2022-08-21T02:39:43.696Z,5.40
2022-08-21T02:40:51.060Z,4.78
2022-08-21T02:41:52.908Z,4.05
2022-08-21T02:42:55.898Z,5.13
2022-08-21T02:43:57.526Z,5.32
2022-08-21T02:45:00.138Z,5.43
2022-08-21T02:46:01.740Z,4.55
2022-08-21T02:47:04.432Z,5.20
2022-08-21T02:48:08.663Z,5.05
2022-08-21T02:49:11.551Z,5.30
2022-08-21T02:50:16.743Z,4.60
2022-08-21T02:51:21.107Z,5.03
2022-08-21T02:52:22.789Z,5.10
2022-08-21T02:53:26.051Z,4.70
2022-08-21T02:54:29.130Z,5.32
2022-08-21T02:55:33.197Z,4.88
2022-08-21T02:56:35.759Z,5.43
2022-08-21T02:57:37.547Z,4.80
2022-08-21T02:58:43.290Z,4.78
2022-08-21T02:59:45.242Z,5.10
2022-08-21T03:00:48.163Z,5.25
2022-08-21T03:01:49.879Z,5.93
2022-08-21T03:02:52.967Z,5.13
2022-08-21T03:03:54.570Z,5.20
2022-08-21T03:04:57.187Z,5.15
2022-08-21T03:05:58.914Z,5.30
2022-08-21T03:07:01.663Z,5.45
2022-08-21T03:08:04.883Z,5.10
2022-08-21T03:09:07.517Z,5.38
2022-08-21T03:10:11.880Z,5.70
2022-08-21T03:11:18.396Z,5.55
2022-08-21T03:12:20.054Z,5.57
2022-08-21T03:13:23.034Z,5.80
2022-08-21T03:14:24.735Z,6.20
2022-08-21T03:15:27.454Z,5.78
2022-08-21T03:16:34.392Z,6.25
2022-08-21T03:17:37.685Z,6.15
2022-08-21T03:18:39.349Z,5.28
2022-08-21T03:19:42.735Z,5.78
2022-08-21T03:20:46.061Z,4.65
2022-08-21T03:21:48.684Z,5.45
2022-08-21T03:22:53.020Z,5.47
2022-08-21T03:23:55.956Z,5.35
2022-08-21T03:24:58.301Z,6.20
2022-08-21T03:26:02.261Z,4.80
2022-08-21T03:27:04.494Z,5.75
2022-08-21T03:28:15.307Z,5.47
2022-08-21T03:29:17.189Z,6.28
2022-08-21T03:30:22.032Z,5.65
2022-08-21T03:31:23.943Z,7.13
2022-08-21T03:32:26.545Z,5.85
2022-08-21T03:33:29.145Z,5.80
2022-08-21T03:34:30.742Z,6.18
2022-08-21T03:35:33.333Z,5.72
2022-08-21T03:36:35.919Z,6.07
2022-08-21T03:37:37.586Z,6.20
2022-08-21T03:38:41.674Z,5.57
2022-08-21T03:39:43.333Z,6.43
2022-08-21T03:40:46.058Z,5.93
2022-08-21T03:41:49.063Z,6.05
2022-08-21T03:42:51.863Z,6.22
2022-08-21T03:43:53.476Z,5.80
2022-08-21T03:44:56.047Z,5.90
2022-08-21T03:45:57.763Z,6.15
2022-08-21T03:47:00.547Z,5.72
2022-08-21T03:48:04.334Z,6.00
2022-08-21T03:49:06.977Z,6.13
2022-08-21T03:50:09.321Z,6.50
2022-08-21T03:51:14.859Z,6.43
2022-08-21T03:52:17.895Z,6.18
2022-08-21T03:53:20.601Z,5.82
2022-08-21T03:54:22.257Z,6.00
2022-08-21T03:55:25.101Z,5.97
2022-08-21T03:56:27.717Z,6.22
2022-08-21T03:57:30.707Z,5.93
2022-08-21T03:58:33.683Z,6.20
2022-08-21T03:59:35.364Z,6.10
2022-08-21T04:00:38.394Z,6.15
2022-08-21T04:01:40.225Z,6.38
2022-08-21T04:02:43.385Z,6.75
2022-08-21T04:03:45.035Z,6.45
2022-08-21T04:04:47.667Z,6.05
2022-08-21T04:05:49.362Z,6.63
2022-08-21T04:06:52.050Z,6.55
2022-08-21T04:07:54.890Z,6.93
2022-08-21T04:08:57.473Z,6.13
2022-08-21T04:09:59.094Z,5.72
2022-08-21T04:11:02.452Z,5.85
2022-08-21T04:12:04.947Z,6.35
2022-08-21T04:13:10.050Z,5.95
2022-08-21T04:14:12.351Z,5.93
2022-08-21T04:15:15.647Z,6.40
2022-08-21T04:16:17.337Z,7.03
2022-08-21T04:17:20.569Z,6.15
2022-08-21T04:18:22.245Z,6.15
2022-08-21T04:19:24.835Z,6.93
2022-08-21T04:20:27.202Z,6.53
2022-08-21T04:21:30.151Z,6.78
2022-08-21T04:22:31.826Z,6.65
2022-08-21T04:23:35.112Z,6.05
2022-08-21T04:24:37.123Z,6.40
2022-08-21T04:25:39.896Z,6.60
2022-08-21T04:26:41.577Z,6.43
2022-08-21T04:27:44.215Z,6.80
2022-08-21T04:28:47.196Z,7.22
2022-08-21T04:29:50.281Z,6.55
2022-08-21T04:30:52.926Z,6.88
2022-08-21T04:31:55.621Z,7.13
2022-08-21T04:32:58.769Z,6.95
2022-08-21T04:34:01.609Z,7.18
2022-08-21T04:35:06.330Z,6.65
2022-08-21T04:36:09.677Z,7.13
2022-08-21T04:37:12.644Z,6.60
2022-08-21T04:38:15.343Z,6.22
2022-08-21T04:39:16.999Z,7.15
2022-08-21T04:40:22.389Z,7.05
2022-08-21T04:41:28.078Z,6.45
2022-08-21T04:42:31.073Z,6.30
2022-08-21T04:43:32.719Z,6.97
2022-08-21T04:44:36.697Z,7.10
2022-08-21T04:45:40.682Z,7.50
2022-08-21T04:46:43.307Z,6.22
2022-08-21T04:47:52.228Z,6.35
2022-08-21T04:48:55.933Z,6.50
2022-08-21T04:49:57.579Z,6.68
2022-08-21T04:51:04.631Z,6.68
2022-08-21T04:52:06.482Z,6.65
2022-08-21T04:53:12.827Z,7.18
2022-08-21T04:54:17.831Z,7.05
2022-08-21T04:55:20.978Z,6.97
2022-08-21T04:56:24.997Z,6.38
2022-08-21T04:57:34.296Z,6.70
2022-08-21T04:58:50.581Z,6.15
2022-08-21T04:59:54.858Z,6.18
2022-08-21T05:00:58.472Z,6.65
2022-08-21T05:02:02.246Z,6.88
2022-08-21T05:03:05.253Z,5.97
2022-08-21T05:04:10.104Z,6.38
2022-08-21T05:05:12.408Z,7.07
2022-08-21T05:06:16.564Z,7.22
2022-08-21T05:07:41.607Z,6.22
2022-08-21T05:08:44.528Z,6.28
2022-08-21T05:09:46.351Z,6.00
2022-08-21T05:10:49.231Z,5.95
2022-08-21T05:11:52.513Z,5.10
2022-08-21T05:12:55.434Z,5.50
2022-08-21T05:13:57.547Z,5.25
2022-08-21T05:15:01.828Z,4.90
2022-08-21T05:16:04.077Z,6.25
2022-08-21T05:17:06.773Z,5.63
2022-08-21T05:18:08.418Z,5.22
2022-08-21T05:19:11.878Z,5.55
2022-08-21T05:20:15.103Z,5.07
2022-08-21T05:21:17.686Z,5.13
2022-08-21T05:22:23.170Z,5.75
2022-08-21T05:23:25.861Z,4.72
2022-08-21T05:24:27.732Z,5.07
2022-08-21T05:25:30.509Z,5.47
2022-08-21T05:26:32.152Z,5.68
2022-08-21T05:27:34.817Z,5.80
2022-08-21T05:28:36.681Z,5.38
2022-08-21T05:29:39.496Z,5.03
2022-08-21T05:30:42.502Z,5.32
2022-08-21T05:31:45.443Z,4.60
2022-08-21T05:32:48.456Z,4.60
2022-08-21T05:33:52.126Z,5.40
2022-08-21T05:34:54.531Z,5.00
2022-08-21T05:35:57.917Z,5.03
2022-08-21T05:37:03.113Z,4.88
2022-08-21T05:38:16.708Z,4.60
2022-08-21T05:39:20.050Z,5.00
2022-08-21T05:40:23.546Z,5.03
2022-08-21T05:41:25.306Z,4.88
2022-08-21T05:42:28.759Z,4.93
2022-08-21T05:43:30.419Z,5.78
2022-08-21T05:44:33.043Z,5.10
2022-08-21T05:45:43.452Z,5.13
2022-08-21T05:46:48.117Z,5.10
2022-08-21T05:47:49.783Z,4.60
2022-08-21T05:48:52.401Z,5.28
2022-08-21T05:49:54.040Z,5.18
2022-08-21T05:50:56.662Z,5.10
2022-08-21T05:51:58.286Z,5.15
2022-08-21T05:53:07.293Z,5.50
2022-08-21T05:54:12.192Z,5.88
2022-08-21T05:55:14.141Z,5.30
2022-08-21T05:56:16.801Z,5.50
2022-08-21T05:57:18.450Z,5.00
2022-08-21T05:58:23.755Z,5.38
2022-08-21T05:59:25.515Z,6.35
2022-08-21T06:00:28.131Z,5.30
2022-08-21T06:01:31.754Z,5.75
2022-08-21T06:02:35.895Z,4.60
2022-08-21T06:03:41.482Z,5.05
2022-08-21T06:04:44.175Z,5.20
2022-08-21T06:05:46.462Z,5.45
2022-08-21T06:06:49.455Z,5.40
2022-08-21T06:07:51.186Z,5.18
2022-08-21T06:08:54.382Z,3.20
2022-08-21T06:09:56.005Z,3.53
2022-08-21T06:11:00.797Z,3.47
2022-08-21T06:12:04.886Z,4.88
2022-08-21T06:13:07.513Z,5.38
2022-08-21T06:14:09.218Z,3.20
2022-08-21T06:15:12.934Z,3.20
2022-08-21T06:16:17.057Z,3.53
2022-08-21T06:17:20.005Z,4.85
2022-08-21T06:18:22.974Z,5.50
2022-08-21T06:19:25.581Z,5.07
2022-08-21T06:20:27.653Z,4.60
2022-08-21T06:21:30.272Z,3.05
2022-08-21T06:22:31.917Z,4.53
2022-08-21T06:23:34.885Z,3.55
2022-08-21T06:24:37.035Z,3.28
2022-08-21T06:25:39.651Z,3.50
2022-08-21T06:26:42.246Z,5.20
2022-08-21T06:27:43.875Z,5.53
2022-08-21T06:28:46.505Z,3.10
2022-08-21T06:29:48.143Z,2.65
2022-08-21T06:30:50.723Z,2.90
2022-08-21T06:31:53.677Z,2.45
2022-08-21T06:32:55.393Z,2.92
2022-08-21T06:33:59.503Z,2.83
2022-08-21T06:35:01.427Z,2.97
2022-08-21T06:36:04.679Z,2.67
2022-08-21T06:37:06.456Z,3.15
2022-08-21T06:38:09.085Z,2.90
2022-08-21T06:39:16.679Z,2.67
2022-08-21T06:40:29.811Z,3.08
2022-08-21T06:41:32.205Z,3.58
2022-08-21T06:42:42.944Z,3.25
2022-08-21T06:43:45.454Z,2.95
2022-08-21T06:44:48.588Z,3.00
2022-08-21T06:45:50.205Z,4.75
2022-08-21T06:46:52.927Z,5.53
2022-08-21T06:47:54.638Z,3.53
2022-08-21T06:48:59.180Z,6.25
2022-08-21T06:50:00.863Z,3.60
2022-08-21T06:51:03.530Z,3.35
2022-08-21T06:52:05.294Z,4.50
2022-08-21T06:53:10.595Z,3.55
2022-08-21T06:54:12.389Z,3.85
2022-08-21T06:55:21.212Z,3.30
2022-08-21T06:56:24.122Z,3.10
2022-08-21T06:57:27.166Z,3.55
2022-08-21T06:58:28.885Z,2.83
2022-08-21T06:59:32.609Z,3.35
2022-08-21T07:00:34.871Z,2.78
2022-08-21T07:01:37.562Z,3.00
2022-08-21T07:02:41.480Z,3.30
2022-08-21T07:03:45.114Z,3.38
2022-08-21T07:04:48.115Z,3.13
2022-08-21T07:05:50.971Z,4.00
2022-08-21T07:06:52.769Z,3.13
2022-08-21T07:07:55.371Z,3.13
2022-08-21T07:08:58.846Z,3.75
2022-08-21T07:10:01.762Z,3.45
2022-08-21T07:11:06.388Z,2.97
2022-08-21T07:12:08.504Z,3.22
2022-08-21T07:13:11.347Z,3.80
2022-08-21T07:14:20.055Z,3.10
2022-08-21T07:15:23.377Z,3.40
2022-08-21T07:16:26.150Z,2.72
2022-08-21T07:17:27.809Z,3.20
2022-08-21T07:18:30.404Z,3.20
2022-08-21T07:19:32.003Z,4.47
2022-08-21T07:20:35.972Z,4.80
2022-08-21T07:21:38.616Z,3.53
2022-08-21T07:22:41.497Z,2.70
2022-08-21T07:23:46.455Z,4.03
2022-08-21T07:24:48.147Z,2.90
2022-08-21T07:25:50.745Z,3.53
2022-08-21T07:26:52.531Z,2.85
2022-08-21T07:27:55.253Z,2.90
2022-08-21T07:28:58.013Z,3.30
2022-08-21T07:29:59.682Z,3.70
2022-08-21T07:31:03.055Z,3.30
2022-08-21T07:32:05.640Z,3.75
2022-08-21T07:33:08.322Z,3.38
2022-08-21T07:34:10.353Z,3.20
2022-08-21T07:35:13.325Z,2.88
2022-08-21T07:36:16.341Z,2.80
2022-08-21T07:37:19.012Z,3.70
2022-08-21T07:38:22.519Z,2.75
2022-08-21T07:39:26.598Z,2.60
2022-08-21T07:40:28.223Z,2.60
2022-08-21T07:41:31.339Z,2.60
2022-08-21T07:42:33.073Z,3.20
2022-08-21T07:43:35.706Z,3.35
2022-08-21T07:44:37.308Z,3.67
2022-08-21T07:45:39.995Z,4.20
2022-08-21T07:46:41.648Z,3.65
2022-08-21T07:47:44.474Z,2.95
2022-08-21T07:48:46.096Z,2.90
2022-08-21T07:49:48.680Z,3.13
2022-08-21T07:50:50.930Z,3.15
2022-08-21T07:51:55.545Z,3.47
2022-08-21T07:52:57.571Z,4.20
2022-08-21T07:54:00.892Z,2.65
2022-08-21T07:55:06.013Z,3.17
2022-08-21T07:56:12.150Z,3.00
2022-08-21T07:57:14.143Z,2.92
2022-08-21T07:58:18.535Z,3.30
2022-08-21T07:59:20.162Z,2.97
2022-08-21T08:00:25.243Z,3.38
2022-08-21T08:01:26.996Z,3.65
2022-08-21T08:02:31.270Z,2.78
2022-08-21T08:03:33.002Z,3.35
2022-08-21T08:04:35.565Z,4.47
2022-08-21T08:05:38.157Z,3.40
2022-08-21T08:06:40.783Z,3.03
2022-08-21T08:07:43.846Z,2.97
2022-08-21T08:08:47.881Z,3.00
2022-08-21T08:09:49.583Z,3.70
2022-08-21T08:10:52.483Z,5.72
2022-08-21T08:11:54.323Z,3.08
2022-08-21T08:12:58.102Z,3.00
2022-08-21T08:14:00.426Z,4.70
2022-08-21T08:15:03.825Z,2.92
2022-08-21T08:16:06.925Z,3.08
2022-08-21T08:17:09.584Z,5.07
2022-08-21T08:18:12.854Z,3.35
2022-08-21T08:19:15.526Z,3.42
2022-08-21T08:20:19.051Z,3.05
2022-08-21T08:21:21.797Z,3.88
2022-08-21T08:22:24.750Z,2.78
2022-08-21T08:23:29.238Z,4.07
2022-08-21T08:24:31.380Z,3.33
2022-08-21T08:25:36.396Z,4.07
2022-08-21T08:26:38.653Z,2.92
2022-08-21T08:27:41.895Z,3.72
2022-08-21T08:28:43.776Z,3.30
2022-08-21T08:29:46.887Z,4.15
2022-08-21T08:30:48.846Z,3.60
2022-08-21T08:31:51.729Z,4.05
2022-08-21T08:32:53.884Z,2.97
2022-08-21T08:33:56.522Z,3.30
2022-08-21T08:34:58.202Z,3.83
2022-08-21T08:36:06.050Z,5.97
2022-08-21T08:37:11.220Z,3.85
2022-08-21T08:38:17.874Z,3.83
2022-08-21T08:39:26.825Z,3.92
2022-08-21T08:40:36.686Z,4.28
2022-08-21T08:41:42.069Z,3.53
2022-08-21T08:42:44.457Z,3.95
2022-08-21T08:43:51.710Z,3.83
2022-08-21T08:44:59.013Z,4.45
2022-08-21T08:46:05.344Z,3.65
2022-08-21T08:47:07.157Z,3.17
2022-08-21T08:48:14.336Z,3.40
2022-08-21T08:49:20.451Z,3.55
2022-08-21T08:50:27.792Z,3.60
2022-08-21T08:51:36.746Z,4.68
2022-08-21T08:52:44.581Z,3.75
2022-08-21T08:53:51.677Z,3.15
2022-08-21T08:55:03.190Z,5.88
2022-08-21T08:56:06.639Z,3.13
2022-08-21T08:57:12.628Z,3.88
2022-08-21T08:58:21.033Z,4.13
2022-08-21T08:59:28.738Z,3.88
2022-08-21T09:00:32.533Z,3.42
2022-08-21T09:01:38.758Z,3.15
2022-08-21T09:02:42.636Z,3.35
2022-08-21T09:03:50.491Z,3.33
2022-08-21T09:04:52.630Z,3.30
2022-08-21T09:05:59.537Z,3.17
2022-08-21T09:07:10.204Z,3.22
2022-08-21T09:08:40.351Z,3.40
2022-08-21T09:09:53.240Z,3.05
2022-08-21T09:11:02.013Z,3.38
2022-08-21T09:12:06.590Z,3.10
2022-08-21T09:13:17.221Z,3.00
2022-08-21T09:14:27.627Z,2.95
2022-08-21T09:15:33.847Z,3.42
2022-08-21T09:16:42.873Z,2.90
2022-08-21T09:17:57.960Z,3.50
2022-08-21T09:19:06.698Z,3.20
2022-08-21T09:20:19.268Z,3.35
2022-08-21T09:21:26.575Z,3.47
2022-08-21T09:22:34.370Z,2.95
2022-08-21T09:23:45.753Z,3.03
2022-08-21T09:24:55.133Z,2.95
2022-08-21T09:26:03.833Z,3.42
2022-08-21T09:27:08.322Z,3.63
2022-08-21T09:28:12.437Z,2.67
2022-08-21T09:29:14.284Z,3.47
2022-08-21T09:30:17.433Z,3.40
2022-08-21T09:31:23.757Z,2.40
2022-08-21T09:32:37.799Z,2.90
2022-08-21T09:33:39.724Z,3.58
2022-08-21T09:34:42.367Z,3.08
2022-08-21T09:35:53.900Z,3.30
2022-08-21T09:36:55.948Z,2.70
2022-08-21T09:38:03.049Z,3.17
2022-08-21T09:39:04.842Z,3.03
2022-08-21T09:40:20.020Z,2.92
2022-08-21T09:41:30.285Z,2.95
2022-08-21T09:42:33.159Z,2.65
2022-08-21T09:43:35.944Z,3.00
2022-08-21T09:44:40.837Z,2.88
2022-08-21T09:45:45.856Z,2.65
2022-08-21T09:46:51.996Z,2.75
2022-08-21T09:47:54.666Z,2.97
2022-08-21T09:48:59.758Z,3.13
2022-08-21T09:50:09.704Z,2.88
2022-08-21T09:51:14.678Z,2.30
2022-08-21T09:52:18.954Z,2.42
2022-08-21T09:53:23.347Z,2.80
2022-08-21T09:54:29.178Z,2.70
2022-08-21T09:55:52.817Z,3.22
2022-08-21T09:57:15.814Z,2.75
2022-08-21T09:58:19.363Z,2.15
2022-08-21T09:59:26.895Z,2.38
2022-08-21T10:00:32.176Z,3.15
2022-08-21T10:01:45.170Z,2.22
2022-08-21T10:02:46.798Z,2.70
2022-08-21T10:03:50.072Z,3.00
2022-08-21T10:04:53.749Z,2.58
2022-08-21T10:06:00.165Z,2.20
2022-08-21T10:07:09.203Z,2.25
2022-08-21T10:08:19.564Z,2.30
2022-08-21T10:09:23.641Z,3.17
2022-08-21T10:10:29.838Z,2.70
2022-08-21T10:11:33.022Z,2.17
2022-08-21T10:12:43.518Z,2.70
2022-08-21T10:13:54.159Z,2.67
2022-08-21T10:15:00.776Z,2.00
2022-08-21T10:16:14.675Z,3.13
2022-08-21T10:17:19.698Z,2.28
2022-08-21T10:18:27.293Z,2.33
2022-08-21T10:19:36.156Z,2.50
2022-08-21T10:20:42.347Z,2.50
2022-08-21T10:21:53.539Z,2.35
2022-08-21T10:23:16.432Z,2.50
2022-08-21T10:24:31.559Z,28.00
2022-08-21T10:25:39.593Z,6.00
2022-08-21T10:26:59.829Z,22.30
2022-08-21T10:28:13.362Z,31.67
2022-08-21T10:29:25.973Z,3.45
2022-08-21T10:30:35.742Z,13.60
2022-08-21T10:31:45.149Z,3.97
2022-08-21T10:33:04.818Z,6.60
2022-08-21T10:34:15.043Z,3.10
2022-08-21T10:35:22.680Z,3.83
2022-08-21T10:36:34.830Z,3.65
2022-08-21T10:37:45.695Z,8.88
2022-08-21T10:39:23.391Z,19.77
2022-08-21T10:40:24.475Z,3.60
2022-08-21T10:41:36.476Z,13.75
2022-08-21T10:42:45.460Z,14.98
2022-08-21T10:43:52.959Z,7.78
2022-08-21T10:45:12.877Z,16.92
2022-08-21T10:46:19.360Z,14.48
2022-08-21T10:47:29.648Z,3.47
2022-08-21T10:48:38.197Z,2.88
2022-08-21T10:49:44.446Z,5.45
2022-08-21T10:50:51.181Z,12.95
2022-08-21T10:51:57.508Z,15.48
2022-08-21T10:53:10.930Z,12.20
2022-08-21T10:54:22.826Z,6.10
2022-08-21T10:55:28.419Z,9.23
2022-08-21T10:56:33.616Z,7.65
2022-08-21T10:57:44.103Z,7.65
2022-08-21T10:58:54.679Z,8.88
2022-08-21T10:59:59.661Z,9.18
2022-08-21T11:01:07.253Z,5.88
2022-08-21T11:02:15.773Z,3.03
2022-08-21T11:03:23.836Z,2.67
2022-08-21T11:04:46.987Z,2.10
2022-08-21T11:05:54.831Z,5.47
2022-08-21T11:07:00.621Z,3.00
2022-08-21T11:08:11.191Z,3.38
2022-08-21T11:09:16.942Z,4.95
2022-08-21T11:10:25.602Z,5.85
2022-08-21T11:11:35.861Z,2.80
2022-08-21T11:12:43.300Z,2.83
2022-08-21T11:13:50.911Z,2.28
2022-08-21T11:14:57.648Z,2.35
2022-08-21T11:16:05.100Z,2.45
2022-08-21T11:17:12.042Z,2.38
2022-08-21T11:18:24.607Z,2.80
2022-08-21T11:19:30.742Z,1.90
2022-08-21T11:20:39.179Z,1.70
2022-08-21T11:21:45.754Z,2.90
2022-08-21T11:22:54.983Z,1.77
2022-08-21T11:24:05.995Z,3.08
2022-08-21T11:25:12.770Z,2.28
2022-08-21T11:26:20.272Z,3.60
2022-08-21T11:27:25.529Z,1.50
2022-08-21T11:28:31.725Z,1.45
2022-08-21T11:29:36.979Z,1.30
2022-08-21T11:30:50.163Z,1.88
2022-08-21T11:32:10.526Z,1.73
2022-08-21T11:33:26.223Z,1.83
2022-08-21T11:34:41.145Z,1.30
2022-08-21T11:35:47.807Z,1.60
2022-08-21T11:36:56.236Z,1.42
2022-08-21T11:38:06.080Z,1.40
2022-08-21T11:39:15.029Z,1.88
2022-08-21T11:40:36.438Z,2.15
2022-08-21T11:41:42.254Z,1.52
2022-08-21T11:42:51.761Z,2.20
2022-08-21T11:44:01.796Z,1.50
2022-08-21T11:45:15.619Z,1.27
2022-08-21T11:46:27.622Z,1.10
2022-08-21T11:47:52.068Z,1.55
2022-08-21T11:49:06.335Z,1.30
2022-08-21T11:50:32.238Z,1.40
2022-08-21T11:51:41.993Z,1.40
2022-08-21T11:52:48.089Z,1.45
2022-08-21T11:53:54.358Z,1.90
2022-08-21T11:55:00.489Z,1.52
2022-08-21T11:56:06.507Z,2.38
2022-08-21T11:57:16.765Z,1.90
2022-08-21T11:58:23.227Z,1.80
2022-08-21T11:59:36.523Z,1.40
2022-08-21T12:00:46.468Z,2.03
2022-08-21T12:01:51.557Z,1.38
2022-08-21T12:02:55.853Z,1.15
2022-08-21T12:04:02.719Z,1.27
2022-08-21T12:05:08.449Z,1.38
2022-08-21T12:06:13.708Z,1.30
2022-08-21T12:07:37.541Z,1.20
2022-08-21T12:08:41.859Z,1.60
2022-08-21T12:09:55.093Z,1.40
2022-08-21T12:11:04.393Z,1.50
2022-08-21T12:12:11.338Z,1.42
2022-08-21T12:13:40.629Z,1.38
2022-08-21T12:14:47.223Z,1.95
2022-08-21T12:15:51.394Z,1.58
2022-08-21T12:16:52.989Z,1.73
2022-08-21T12:17:59.102Z,1.38
2022-08-21T12:19:06.044Z,1.48
2022-08-21T12:20:19.723Z,1.20
2022-08-21T12:21:24.722Z,1.20
2022-08-21T12:22:41.812Z,1.17
2022-08-21T12:23:48.316Z,1.45
2022-08-21T12:24:50.760Z,1.75
2022-08-21T12:26:13.562Z,2.45
2022-08-21T12:27:26.316Z,1.35
2022-08-21T12:28:29.136Z,1.40
2022-08-21T12:29:34.096Z,1.63
2022-08-21T12:30:37.890Z,1.77
2022-08-21T12:31:55.987Z,1.02
2022-08-21T12:33:00.454Z,1.48
2022-08-21T12:34:04.857Z,1.52
2022-08-21T12:35:19.837Z,1.95
2022-08-21T12:36:43.327Z,1.67
2022-08-21T12:37:49.830Z,1.55
2022-08-21T12:38:53.233Z,1.83
2022-08-21T12:39:56.513Z,1.67
2022-08-21T12:41:01.134Z,1.45
2022-08-21T12:42:08.523Z,1.55
2022-08-21T12:43:14.999Z,1.35
2022-08-21T12:44:19.872Z,1.20
2022-08-21T12:45:24.651Z,1.10
2022-08-21T12:46:32.417Z,0.90
2022-08-21T12:47:44.917Z,1.50
2022-08-21T12:48:53.586Z,1.25
2022-08-21T12:49:58.003Z,1.27
2022-08-21T12:51:09.695Z,1.48
2022-08-21T12:52:15.336Z,1.27
2022-08-21T12:53:27.251Z,1.50
2022-08-21T12:54:30.785Z,1.08
2022-08-21T12:55:35.245Z,1.17
2022-08-21T12:56:39.983Z,1.13
2022-08-21T12:57:43.691Z,1.17
2022-08-21T12:58:47.260Z,1.48
2022-08-21T12:59:54.654Z,1.45
2022-08-21T13:01:02.902Z,1.23
2022-08-21T13:02:07.804Z,1.17
2022-08-21T13:03:12.380Z,1.67
2022-08-21T13:04:17.417Z,1.10
2022-08-21T13:05:29.498Z,1.20
2022-08-21T13:06:38.268Z,1.30
2022-08-21T13:07:46.488Z,1.63
2022-08-21T13:08:49.576Z,1.40
2022-08-21T13:09:54.716Z,1.42
2022-08-21T13:10:59.332Z,1.27
2022-08-21T13:12:02.289Z,1.27
2022-08-21T13:13:12.271Z,1.10
2022-08-21T13:14:21.029Z,1.55
2022-08-21T13:15:33.244Z,1.08
2022-08-21T13:16:35.671Z,1.05
2022-08-21T13:17:41.760Z,1.45
2022-08-21T13:18:57.365Z,1.45
2022-08-21T13:20:01.742Z,1.42
2022-08-21T13:21:06.271Z,1.30
2022-08-21T13:22:33.726Z,1.27
2022-08-21T13:23:37.376Z,1.10
2022-08-21T13:24:43.362Z,1.52
2022-08-21T13:25:46.359Z,1.38
2022-08-21T13:26:48.869Z,1.35
2022-08-21T13:28:00.958Z,1.10
2022-08-21T13:29:08.436Z,1.10
2022-08-21T13:30:15.315Z,1.33
2022-08-21T13:31:30.019Z,1.30
2022-08-21T13:32:33.064Z,1.15
2022-08-21T13:33:37.855Z,1.23
2022-08-21T13:34:40.947Z,1.08
2022-08-21T13:35:51.901Z,1.30
2022-08-21T13:36:56.853Z,0.93
2022-08-21T13:38:00.328Z,1.17
2022-08-21T13:39:03.773Z,1.27
2022-08-21T13:40:10.078Z,1.30
2022-08-21T13:41:24.367Z,1.55
2022-08-21T13:42:26.199Z,0.98
2022-08-21T13:43:35.419Z,1.00
2022-08-21T13:44:42.543Z,1.27
2022-08-21T13:45:46.079Z,1.17
2022-08-21T13:46:48.805Z,1.10
2022-08-21T13:47:53.984Z,1.15
2022-08-21T13:48:56.363Z,1.10
2022-08-21T13:50:00.325Z,0.98
2022-08-21T13:51:02.481Z,1.02
2022-08-21T13:52:07.548Z,0.85
2022-08-21T13:53:22.943Z,1.15
2022-08-21T13:54:27.987Z,0.95
2022-08-21T13:55:38.363Z,1.02
2022-08-21T13:56:45.466Z,1.13
2022-08-21T13:57:47.536Z,1.00
2022-08-21T13:58:50.135Z,1.05
2022-08-21T13:59:52.634Z,1.00
2022-08-21T14:00:56.814Z,2.17
2022-08-21T14:02:00.936Z,1.00
2022-08-21T14:03:07.990Z,1.13
2022-08-21T14:04:19.224Z,1.20
2022-08-21T14:05:24.770Z,1.10
2022-08-21T14:06:28.168Z,0.95
2022-08-21T14:07:34.054Z,1.30
2022-08-21T14:08:37.915Z,1.08
2022-08-21T14:09:43.872Z,0.98
2022-08-21T14:10:47.994Z,1.25
2022-08-21T14:11:56.711Z,1.10
2022-08-21T14:13:00.539Z,1.00
2022-08-21T14:14:06.171Z,1.20
2022-08-21T14:15:09.697Z,1.05
2022-08-21T14:16:16.760Z,1.10
2022-08-21T14:17:29.064Z,1.40
2022-08-21T14:18:45.691Z,1.17
2022-08-21T14:19:48.627Z,1.05
2022-08-21T14:20:52.025Z,1.15
2022-08-21T14:21:56.477Z,1.15
2022-08-21T14:22:58.529Z,2.13
2022-08-21T14:24:05.699Z,1.50
2022-08-21T14:25:11.691Z,1.33
2022-08-21T14:26:19.398Z,1.83
2022-08-21T14:27:22.044Z,1.40
2022-08-21T14:28:28.000Z,1.10